createdAt,value
2018-01-01T00:01:42.388Z,74.64
2018-01-01T00:04:10.046Z,75.59
2018-01-01T00:06:37.601Z,75.55
2018-01-01T00:09:05.450Z,75.50
2018-01-01T00:11:33.247Z,74.14
2018-01-01T00:14:00.779Z,74.36
2018-01-01T00:16:28.321Z,74.75
2018-01-01T00:18:55.860Z,75.16
2018-01-01T00:21:23.392Z,74.84
2018-01-01T00:26:17.731Z,74.77
2018-01-01T00:28:45.265Z,74.89
2018-01-01T00:31:12.825Z,73.95
2018-01-01T00:33:40.349Z,74.71
2018-01-01T00:36:08.173Z,75.01
2018-01-01T00:38:35.685Z,74.55
2018-01-01T00:41:03.212Z,74.62
2018-01-01T00:43:30.813Z,74.20
2018-01-01T00:45:58.332Z,74.60
2018-01-01T00:48:25.853Z,73.91
2018-01-01T00:50:53.383Z,74.22
2018-01-01T00:53:20.899Z,75.07
2018-01-01T00:55:48.418Z,74.27
2018-01-01T00:58:15.983Z,73.66
2018-01-01T01:00:43.532Z,73.91
2018-01-01T01:03:11.196Z,73.54
2018-01-01T01:05:38.710Z,73.58
2018-01-01T01:08:06.224Z,73.52
2018-01-01T01:10:33.824Z,74.45
2018-01-01T01:13:01.328Z,74.18
2018-01-01T01:15:28.872Z,73.87
2018-01-01T01:17:56.388Z,73.35
2018-01-01T01:20:23.901Z,73.57
2018-01-01T01:22:51.400Z,74.03
2018-01-01T01:25:18.913Z,74.02
2018-01-01T01:27:46.438Z,73.83
2018-01-01T01:30:13.948Z,73.29
2018-01-01T01:32:41.468Z,73.64
2018-01-01T01:35:08.979Z,73.88
2018-01-01T01:37:36.511Z,74.29
2018-01-01T01:40:04.027Z,73.89
2018-01-01T01:42:31.539Z,73.60
2018-01-01T01:44:59.066Z,73.96
2018-01-01T01:47:26.617Z,74.10
2018-01-01T01:49:54.131Z,73.84
2018-01-01T01:52:21.653Z,73.64
2018-01-01T01:54:49.170Z,74.22
2018-01-01T01:57:16.680Z,74.24
2018-01-01T01:59:44.181Z,74.04
2018-01-01T02:02:11.697Z,73.80
2018-01-01T02:04:39.228Z,73.63
2018-01-01T02:07:06.749Z,73.80
2018-01-01T02:09:34.264Z,73.68
2018-01-01T02:12:01.781Z,73.08
2018-01-01T02:14:29.295Z,72.98
2018-01-01T02:16:56.798Z,72.91
2018-01-01T02:19:24.314Z,72.58
2018-01-01T02:21:51.822Z,72.57
2018-01-01T02:24:19.332Z,73.10
2018-01-01T02:26:46.846Z,72.77
2018-01-01T02:29:14.359Z,73.26
2018-01-01T02:31:41.883Z,73.17
2018-01-01T02:34:09.397Z,72.85
2018-01-01T02:36:36.925Z,72.53
2018-01-01T02:39:04.442Z,72.21
2018-01-01T02:41:31.946Z,71.99
2018-01-01T02:43:59.462Z,72.36
2018-01-01T02:46:26.984Z,71.85
2018-01-01T02:48:54.497Z,71.86
2018-01-01T02:51:22.022Z,72.36
2018-01-01T02:53:49.537Z,71.27
2018-01-01T02:56:17.051Z,71.29
2018-01-01T02:58:44.555Z,70.37
2018-01-01T03:01:12.060Z,71.10
2018-01-01T03:03:39.575Z,71.37
2018-01-01T03:06:07.071Z,71.96
2018-01-01T03:08:34.572Z,71.44
2018-01-01T03:11:02.082Z,71.63
2018-01-01T03:13:29.584Z,70.82
2018-01-01T03:15:57.080Z,71.13
2018-01-01T03:18:24.584Z,71.25
2018-01-01T03:20:52.090Z,70.83
2018-01-01T03:23:19.617Z,71.36
2018-01-01T03:25:47.125Z,71.60
2018-01-01T03:28:14.638Z,71.09
2018-01-01T03:30:42.144Z,71.57
2018-01-01T03:33:09.649Z,72.21
2018-01-01T03:35:37.148Z,71.78
2018-01-01T03:38:04.653Z,71.53
2018-01-01T03:40:32.153Z,72.16
2018-01-01T03:42:59.658Z,71.72
2018-01-01T03:45:27.179Z,72.09
2018-01-01T03:47:54.711Z,73.00
2018-01-01T03:50:22.217Z,72.93
2018-01-01T03:52:49.725Z,73.11
2018-01-01T03:55:17.240Z,73.44
2018-01-01T03:57:44.758Z,73.19
2018-01-01T04:00:12.272Z,73.60
2018-01-01T04:02:39.789Z,73.81
2018-01-01T04:05:07.293Z,73.77
2018-01-01T04:07:34.814Z,74.15
2018-01-01T04:10:02.324Z,74.17
2018-01-01T04:12:29.826Z,74.00
2018-01-01T04:14:57.344Z,74.48
2018-01-01T04:17:24.860Z,74.72
2018-01-01T04:19:52.360Z,74.31
2018-01-01T04:22:19.881Z,74.29
2018-01-01T04:24:47.386Z,74.73
2018-01-01T04:27:14.888Z,74.38
2018-01-01T04:29:42.404Z,74.67
2018-01-01T04:32:09.916Z,74.67
2018-01-01T04:34:37.413Z,74.46
2018-01-01T04:37:04.926Z,74.61
2018-01-01T04:39:32.436Z,74.42
2018-01-01T04:41:59.944Z,74.79
2018-01-01T04:44:27.449Z,74.68
2018-01-01T04:46:54.956Z,75.05
2018-01-01T04:49:22.475Z,75.32
2018-01-01T04:51:49.972Z,75.52
2018-01-01T04:54:17.482Z,75.40
2018-01-01T04:56:44.986Z,75.76
2018-01-01T04:59:12.492Z,75.67
2018-01-01T05:01:40.005Z,75.89
2018-01-01T05:04:07.513Z,76.27
2018-01-01T05:06:35.017Z,76.29
2018-01-01T05:09:02.573Z,75.89
2018-01-01T05:11:30.080Z,75.81
2018-01-01T05:13:57.588Z,76.38
2018-01-01T05:16:25.093Z,76.31
2018-01-01T05:18:52.607Z,76.33
2018-01-01T05:21:20.102Z,76.54
2018-01-01T05:23:47.624Z,76.52
2018-01-01T05:26:15.128Z,76.83
2018-01-01T05:28:42.633Z,76.52
2018-01-01T05:31:10.148Z,76.42
2018-01-01T05:33:37.660Z,76.67
2018-01-01T05:36:05.181Z,76.63
2018-01-01T05:38:32.685Z,76.60
2018-01-01T05:41:00.185Z,77.18
2018-01-01T05:43:27.706Z,76.69
2018-01-01T05:45:55.204Z,77.03
2018-01-01T05:48:22.707Z,76.80
2018-01-01T05:50:50.208Z,76.71
2018-01-01T05:53:17.717Z,76.88
2018-01-01T05:55:45.224Z,77.07
2018-01-01T05:58:12.730Z,76.93
2018-01-01T06:00:40.245Z,77.18
2018-01-01T06:03:07.752Z,76.92
2018-01-01T06:05:35.261Z,77.43
2018-01-01T06:08:02.780Z,77.09
2018-01-01T06:10:30.291Z,76.56
2018-01-01T06:12:57.802Z,76.57
2018-01-01T06:15:25.311Z,76.32
2018-01-01T06:17:52.823Z,75.35
2018-01-01T06:20:20.326Z,73.83
2018-01-01T06:22:47.834Z,71.44
2018-01-01T06:25:15.334Z,71.33
2018-01-01T06:27:42.836Z,71.47
2018-01-01T06:30:10.341Z,71.11
2018-01-01T06:32:37.852Z,69.64
2018-01-01T06:35:05.360Z,69.81
2018-01-01T06:37:32.864Z,67.94
2018-01-01T06:40:00.373Z,67.76
2018-01-01T06:42:27.881Z,67.18
2018-01-01T06:44:55.396Z,67.17
2018-01-01T06:47:22.918Z,65.33
2018-01-01T06:49:50.420Z,66.30
2018-01-01T06:52:17.943Z,65.77
2018-01-01T06:54:45.469Z,64.95
2018-01-01T06:57:12.976Z,64.84
2018-01-01T06:59:40.486Z,65.42
2018-01-01T07:02:08.029Z,66.03
2018-01-01T07:04:35.537Z,65.59
2018-01-01T07:07:03.044Z,67.14
2018-01-01T07:09:30.575Z,65.77
2018-01-01T07:11:58.089Z,66.17
2018-01-01T07:14:25.592Z,66.69
2018-01-01T07:16:53.092Z,67.10
2018-01-01T07:19:20.591Z,65.76
2018-01-01T07:21:48.099Z,66.16
2018-01-01T07:24:15.610Z,66.52
2018-01-01T07:26:43.127Z,66.97
2018-01-01T07:29:10.636Z,67.16
2018-01-01T07:31:38.137Z,66.52
2018-01-01T07:34:05.641Z,66.83
2018-01-01T07:36:33.146Z,66.93
2018-01-01T07:39:00.670Z,67.43
2018-01-01T07:41:28.181Z,67.51
2018-01-01T07:43:55.686Z,67.59
2018-01-01T07:46:23.197Z,67.93
2018-01-01T07:48:50.700Z,68.55
2018-01-01T07:51:18.201Z,68.95
2018-01-01T07:53:45.700Z,68.84
2018-01-01T07:56:13.199Z,69.11
2018-01-01T07:58:40.691Z,68.46
2018-01-01T08:01:08.188Z,68.23
2018-01-01T08:03:35.684Z,67.74
2018-01-01T08:06:03.185Z,68.07
2018-01-01T08:08:30.695Z,68.34
2018-01-01T08:10:58.213Z,68.10
2018-01-01T08:13:25.728Z,68.26
2018-01-01T08:15:53.225Z,68.66
2018-01-01T08:18:20.736Z,67.43
2018-01-01T08:20:48.239Z,67.55
2018-01-01T08:23:15.733Z,67.75
2018-01-01T08:25:43.224Z,68.15
2018-01-01T08:28:10.741Z,67.88
2018-01-01T08:30:38.242Z,68.83
2018-01-01T08:33:05.742Z,68.44
2018-01-01T08:35:33.257Z,68.46
2018-01-01T08:38:00.761Z,68.13
2018-01-01T08:40:28.260Z,68.97
2018-01-01T08:42:55.772Z,69.15
2018-01-01T08:45:23.280Z,69.03
2018-01-01T08:47:50.779Z,69.45
2018-01-01T08:50:18.289Z,68.77
2018-01-01T08:52:45.790Z,67.71
2018-01-01T08:55:13.321Z,67.80
2018-01-01T08:57:40.834Z,67.81
2018-01-01T09:00:08.336Z,66.55
2018-01-01T09:02:35.847Z,65.66
2018-01-01T09:05:03.353Z,64.68
2018-01-01T09:07:30.861Z,64.49
2018-01-01T09:09:58.366Z,64.67
2018-01-01T09:12:25.881Z,64.30
2018-01-01T09:14:53.395Z,64.95
2018-01-01T09:17:20.934Z,63.39
2018-01-01T09:19:48.505Z,62.28
2018-01-01T09:22:16.027Z,61.28
2018-01-01T09:24:43.534Z,61.82
2018-01-01T09:27:11.053Z,58.77
2018-01-01T09:29:38.560Z,58.58
2018-01-01T09:32:06.069Z,58.61
2018-01-01T09:34:33.583Z,58.15
2018-01-01T09:37:01.097Z,59.65
2018-01-01T09:39:28.622Z,57.18
2018-01-01T09:41:56.135Z,57.90
2018-01-01T09:44:23.657Z,57.89
2018-01-01T09:46:51.169Z,59.90
2018-01-01T09:49:18.713Z,57.96
2018-01-01T09:51:46.249Z,57.80
2018-01-01T09:54:13.877Z,57.63
2018-01-01T09:56:41.426Z,58.12
2018-01-01T09:59:08.945Z,58.82
2018-01-01T10:01:36.472Z,55.94
2018-01-01T10:04:04.006Z,56.02
2018-01-01T10:06:31.658Z,56.84
2018-01-01T10:08:59.162Z,55.14
2018-01-01T10:11:26.676Z,57.22
2018-01-01T10:13:54.188Z,57.21
2018-01-01T10:16:21.698Z,56.16
2018-01-01T10:18:49.255Z,57.26
2018-01-01T10:21:16.762Z,57.14
2018-01-01T10:23:44.266Z,58.24
2018-01-01T10:26:11.783Z,58.14
2018-01-01T10:28:39.337Z,59.54
2018-01-01T10:31:06.853Z,59.45
2018-01-01T10:33:34.365Z,59.71
2018-01-01T10:36:01.902Z,60.08
2018-01-01T10:38:29.424Z,60.81
2018-01-01T10:40:57.991Z,60.29
2018-01-01T10:43:25.490Z,60.57
2018-01-01T10:45:52.997Z,61.22
2018-01-01T10:48:20.504Z,61.05
2018-01-01T10:50:48.020Z,61.30
2018-01-01T10:53:15.552Z,61.42
2018-01-01T10:55:43.061Z,61.04
2018-01-01T10:58:10.583Z,61.99
2018-01-01T11:00:38.102Z,61.04
2018-01-01T11:03:05.610Z,60.77
2018-01-01T11:05:33.123Z,61.18
2018-01-01T11:08:00.647Z,60.68
2018-01-01T11:10:28.174Z,59.83
2018-01-01T11:12:55.682Z,60.51
2018-01-01T11:15:23.192Z,61.08
2018-01-01T11:17:50.696Z,60.62
2018-01-01T11:20:18.212Z,61.50
2018-01-01T11:22:45.716Z,60.34
2018-01-01T11:25:13.217Z,59.74
2018-01-01T11:27:40.737Z,59.23
2018-01-01T11:30:08.253Z,60.41
2018-01-01T11:32:35.764Z,59.59
2018-01-01T11:35:03.300Z,59.20
2018-01-01T11:37:30.810Z,58.65
2018-01-01T11:39:58.325Z,58.20
2018-01-01T11:42:25.830Z,59.16
2018-01-01T11:44:53.340Z,58.54
2018-01-01T11:47:20.858Z,58.44
2018-01-01T11:49:48.363Z,58.90
2018-01-01T11:52:15.878Z,57.37
2018-01-01T11:54:43.398Z,57.99
2018-01-01T11:57:10.909Z,56.94
2018-01-01T11:59:38.420Z,58.31
2018-01-01T12:02:05.951Z,57.72
2018-01-01T12:04:33.468Z,56.97
2018-01-01T12:07:00.976Z,57.99
2018-01-01T12:09:28.489Z,58.70
2018-01-01T12:11:55.992Z,57.27
2018-01-01T12:14:23.503Z,56.57
2018-01-01T12:16:51.013Z,56.67
2018-01-01T12:19:18.524Z,58.24
2018-01-01T12:21:46.045Z,57.16
2018-01-01T12:24:13.556Z,57.40
2018-01-01T12:26:41.067Z,57.25
2018-01-01T12:29:08.597Z,56.88
2018-01-01T12:31:36.106Z,57.26
2018-01-01T12:34:03.612Z,57.16
2018-01-01T12:36:31.126Z,57.13
2018-01-01T12:38:58.633Z,57.62
2018-01-01T12:41:26.142Z,57.49
2018-01-01T12:43:53.660Z,57.13
2018-01-01T12:46:21.161Z,57.41
2018-01-01T12:48:48.982Z,58.19
2018-01-01T12:51:16.480Z,58.12
2018-01-01T12:53:43.989Z,57.71
2018-01-01T12:56:11.504Z,58.41
2018-01-01T12:58:39.134Z,58.06
2018-01-01T13:01:06.638Z,58.19
2018-01-01T13:03:34.145Z,58.73
2018-01-01T13:06:01.660Z,58.27
2018-01-01T13:08:29.177Z,57.05
2018-01-01T13:10:56.693Z,57.24
2018-01-01T13:13:24.206Z,55.34
2018-01-01T13:15:51.710Z,54.98
2018-01-01T13:18:19.312Z,55.12
2018-01-01T13:20:46.855Z,55.57
2018-01-01T13:23:14.361Z,56.14
2018-01-01T13:25:41.874Z,56.16
2018-01-01T13:28:09.433Z,56.53
2018-01-01T13:30:36.964Z,56.81
2018-01-01T13:33:04.558Z,56.31
2018-01-01T13:35:32.067Z,56.93
2018-01-01T13:37:59.582Z,55.56
2018-01-01T13:40:27.100Z,55.82
2018-01-01T13:42:54.625Z,56.37
2018-01-01T13:45:22.119Z,56.55
2018-01-01T13:47:49.713Z,56.67
2018-01-01T13:50:17.203Z,56.57
2018-01-01T13:52:44.754Z,56.93
2018-01-01T13:55:12.273Z,57.29
2018-01-01T13:57:39.784Z,57.64
2018-01-01T14:00:07.414Z,57.99
2018-01-01T14:02:34.932Z,57.27
2018-01-01T14:05:02.508Z,58.32
2018-01-01T14:07:30.056Z,58.00
2018-01-01T14:09:57.656Z,58.04
2018-01-01T14:12:25.170Z,58.35
2018-01-01T14:14:52.787Z,57.75
2018-01-01T14:17:20.302Z,57.73
2018-01-01T14:19:47.816Z,59.51
2018-01-01T14:22:15.318Z,57.74
2018-01-01T14:24:42.828Z,57.73
2018-01-01T14:27:10.332Z,58.50
2018-01-01T14:29:37.860Z,59.46
2018-01-01T14:32:05.377Z,59.97
2018-01-01T14:34:32.957Z,59.94
2018-01-01T14:37:00.510Z,59.65
2018-01-01T14:39:28.024Z,60.52
2018-01-01T14:41:55.540Z,60.91
2018-01-01T14:44:23.050Z,60.80
2018-01-01T14:46:50.669Z,61.69
2018-01-01T14:49:18.183Z,61.22
2018-01-01T14:51:45.740Z,61.18
2018-01-01T14:54:13.281Z,62.14
2018-01-01T14:56:40.786Z,62.28
2018-01-01T14:59:08.288Z,61.60
2018-01-01T15:01:35.792Z,61.90
2018-01-01T15:04:03.288Z,61.93
2018-01-01T15:06:30.826Z,61.39
2018-01-01T15:08:58.341Z,61.53
2018-01-01T15:11:25.852Z,62.12
2018-01-01T15:13:53.386Z,62.28
2018-01-01T15:16:20.952Z,61.79
2018-01-01T15:18:48.521Z,62.01
2018-01-01T15:21:16.387Z,61.52
2018-01-01T15:23:43.921Z,62.14
2018-01-01T15:26:11.481Z,61.47
2018-01-01T15:28:39.072Z,61.58
2018-01-01T15:31:06.588Z,61.85
2018-01-01T15:33:34.088Z,61.58
2018-01-01T15:36:01.593Z,62.26
2018-01-01T15:38:29.105Z,61.59
2018-01-01T15:40:56.615Z,61.26
2018-01-01T15:43:24.145Z,61.83
2018-01-01T15:45:51.655Z,63.61
2018-01-01T15:48:19.168Z,61.63
2018-01-01T15:50:46.802Z,62.87
2018-01-01T15:53:14.307Z,62.66
2018-01-01T15:55:41.806Z,62.76
2018-01-01T15:58:09.395Z,62.65
2018-01-01T16:00:36.921Z,62.64
2018-01-01T16:03:04.424Z,62.55
2018-01-01T16:05:31.929Z,63.09
2018-01-01T16:07:59.518Z,63.53
2018-01-01T16:10:27.030Z,63.41
2018-01-01T16:12:54.544Z,64.16
2018-01-01T16:15:22.122Z,64.14
2018-01-01T16:17:49.624Z,64.19
2018-01-01T16:20:17.171Z,64.98
2018-01-01T16:22:44.673Z,65.46
2018-01-01T16:25:12.169Z,65.52
2018-01-01T16:27:39.663Z,65.68
2018-01-01T16:30:07.235Z,65.58
2018-01-01T16:32:34.745Z,66.09
2018-01-01T16:35:02.248Z,65.94
2018-01-01T16:37:29.752Z,66.36
2018-01-01T16:39:57.273Z,66.74
2018-01-01T16:42:24.775Z,66.77
2018-01-01T16:44:52.387Z,66.57
2018-01-01T16:47:19.897Z,66.77
2018-01-01T16:49:47.399Z,67.07
2018-01-01T16:52:14.933Z,67.31
2018-01-01T16:54:42.516Z,67.03
2018-01-01T16:57:10.042Z,67.04
2018-01-01T16:59:37.675Z,67.23
2018-01-01T17:02:05.180Z,67.34
2018-01-01T17:04:32.699Z,67.54
2018-01-01T17:07:00.209Z,67.71
2018-01-01T17:09:27.740Z,67.66
2018-01-01T17:11:55.349Z,67.97
2018-01-01T17:14:22.856Z,67.83
2018-01-01T17:16:50.481Z,67.85
2018-01-01T17:19:17.991Z,67.88
2018-01-01T17:21:45.596Z,68.17
2018-01-01T17:24:13.145Z,69.04
2018-01-01T17:26:40.721Z,68.78
2018-01-01T17:29:08.215Z,68.60
2018-01-01T17:31:35.703Z,69.26
2018-01-01T17:34:03.217Z,69.22
2018-01-01T17:36:30.712Z,69.69
2018-01-01T17:38:58.247Z,69.62
2018-01-01T17:41:25.745Z,69.48
2018-01-01T17:43:53.292Z,69.53
2018-01-01T17:46:20.798Z,69.73
2018-01-01T17:48:48.300Z,70.26
2018-01-01T17:51:15.812Z,70.34
2018-01-01T17:53:43.313Z,70.49
2018-01-01T17:56:10.816Z,70.81
2018-01-01T17:58:38.317Z,71.28
2018-01-01T18:01:05.828Z,71.23
2018-01-01T18:03:33.330Z,71.31
2018-01-01T18:06:00.828Z,71.59
2018-01-01T18:08:28.340Z,71.75
2018-01-01T18:10:55.847Z,72.10
2018-01-01T18:13:23.359Z,72.25
2018-01-01T18:15:50.864Z,72.64
2018-01-01T18:18:18.369Z,72.35
2018-01-01T18:20:45.868Z,72.35
2018-01-01T18:23:13.377Z,73.13
2018-01-01T18:25:40.885Z,72.84
2018-01-01T18:28:08.391Z,72.96
2018-01-01T18:30:35.886Z,72.90
2018-01-01T18:33:03.432Z,73.36
2018-01-01T18:35:30.945Z,73.16
2018-01-01T18:37:58.450Z,73.15
2018-01-01T18:40:25.969Z,72.98
2018-01-01T18:42:53.476Z,73.23
2018-01-01T18:45:21.006Z,73.48
2018-01-01T18:47:48.539Z,73.21
2018-01-01T18:50:16.044Z,73.44
2018-01-01T18:52:43.553Z,73.46
2018-01-01T18:55:11.061Z,73.64
2018-01-01T18:57:38.569Z,73.41
2018-01-01T19:00:06.077Z,73.66
2018-01-01T19:02:33.601Z,73.64
2018-01-01T19:05:01.108Z,74.40
2018-01-01T19:07:28.650Z,74.20
2018-01-01T19:09:56.154Z,74.33
2018-01-01T19:12:23.660Z,74.20
2018-01-01T19:14:51.157Z,74.54
2018-01-01T19:17:18.699Z,74.58
2018-01-01T19:19:46.224Z,74.56
2018-01-01T19:22:13.748Z,74.60
2018-01-01T19:24:41.274Z,74.82
2018-01-01T19:27:08.789Z,74.44
2018-01-01T19:29:36.284Z,74.85
2018-01-01T19:32:03.797Z,74.90
2018-01-01T19:34:31.321Z,74.94
2018-01-01T19:36:58.872Z,74.99
2018-01-01T19:39:26.399Z,75.03
2018-01-01T19:41:53.917Z,74.92
2018-01-01T19:44:21.422Z,75.46
2018-01-01T19:46:48.949Z,75.26
2018-01-01T19:49:16.469Z,75.66
2018-01-01T19:51:43.980Z,75.74
2018-01-01T19:54:11.527Z,75.65
2018-01-01T19:56:39.058Z,75.83
2018-01-01T19:59:06.609Z,76.03
2018-01-01T20:01:34.117Z,75.64
2018-01-01T20:04:01.625Z,76.04
2018-01-01T20:06:29.152Z,75.85
2018-01-01T20:08:56.674Z,75.91
2018-01-01T20:11:24.181Z,76.08
2018-01-01T20:13:51.692Z,75.87
2018-01-01T20:16:19.208Z,75.90
2018-01-01T20:18:46.708Z,75.88
2018-01-01T20:21:14.218Z,75.80
2018-01-01T20:23:41.772Z,75.71
2018-01-01T20:26:09.302Z,75.73
2018-01-01T20:28:36.822Z,75.77
2018-01-01T20:31:04.338Z,76.00
2018-01-01T20:33:31.842Z,75.76
2018-01-01T20:35:59.349Z,75.76
2018-01-01T20:38:26.893Z,76.28
2018-01-01T20:40:54.407Z,75.86
2018-01-01T20:43:21.912Z,75.74
2018-01-01T20:45:49.415Z,75.99
2018-01-01T20:48:16.930Z,75.71
2018-01-01T20:50:44.440Z,75.54
2018-01-01T20:53:11.944Z,75.58
2018-01-01T20:55:39.441Z,75.55
2018-01-01T20:58:06.940Z,75.60
2018-01-01T21:00:34.470Z,75.50
2018-01-01T21:03:01.972Z,75.64
2018-01-01T21:05:29.477Z,75.35
2018-01-01T21:07:56.988Z,75.38
2018-01-01T21:10:24.484Z,75.49
2018-01-01T21:12:51.980Z,75.63
2018-01-01T21:15:19.475Z,75.35
2018-01-01T21:17:46.978Z,75.32
2018-01-01T21:20:14.485Z,75.51
2018-01-01T21:22:41.995Z,75.42
2018-01-01T21:25:09.492Z,75.15
2018-01-01T21:27:37.005Z,75.11
2018-01-01T21:30:04.513Z,75.15
2018-01-01T21:32:32.035Z,75.17
2018-01-01T21:34:59.533Z,75.23
2018-01-01T21:37:27.070Z,75.18
2018-01-01T21:39:54.576Z,75.29
2018-01-01T21:42:22.075Z,75.38
2018-01-01T21:44:49.713Z,75.40
2018-01-01T21:47:17.220Z,75.50
2018-01-01T21:49:44.748Z,75.67
2018-01-01T21:52:12.253Z,75.98
2018-01-01T21:54:39.768Z,76.90
2018-01-01T21:57:07.292Z,76.11
2018-01-01T21:59:34.784Z,75.63
2018-01-01T22:02:02.276Z,75.88
2018-01-01T22:04:29.783Z,75.78
2018-01-01T22:06:57.291Z,75.93
2018-01-01T22:09:24.797Z,75.53
2018-01-01T22:11:52.301Z,75.86
2018-01-01T22:14:19.829Z,75.71
2018-01-01T22:16:47.344Z,75.71
2018-01-01T22:19:14.866Z,75.79
2018-01-01T22:21:42.370Z,75.45
2018-01-01T22:24:09.876Z,75.56
2018-01-01T22:26:37.411Z,75.28
2018-01-01T22:29:04.908Z,75.21
2018-01-01T22:31:32.423Z,75.05
2018-01-01T22:33:59.921Z,75.16
2018-01-01T22:36:27.448Z,75.13
2018-01-01T22:38:54.992Z,75.02
2018-01-01T22:41:22.508Z,74.78
2018-01-01T22:43:50.013Z,74.99
2018-01-01T22:46:17.527Z,74.79
2018-01-01T22:48:45.036Z,74.85
2018-01-01T22:51:12.525Z,74.71
2018-01-01T22:53:40.032Z,74.83
2018-01-01T22:56:07.571Z,74.96
2018-01-01T22:58:35.083Z,75.18
2018-01-01T23:01:02.601Z,75.13
2018-01-01T23:03:30.112Z,74.96
2018-01-01T23:05:57.613Z,74.92
2018-01-01T23:08:25.122Z,74.92
2018-01-01T23:10:52.627Z,74.91
2018-01-01T23:13:20.140Z,75.06
2018-01-01T23:15:47.649Z,75.51
2018-01-01T23:18:15.160Z,75.16
2018-01-01T23:20:42.663Z,75.13
2018-01-01T23:23:10.174Z,75.21
2018-01-01T23:25:37.688Z,75.12
2018-01-01T23:28:05.188Z,75.05
2018-01-01T23:30:32.710Z,75.34
2018-01-01T23:33:00.220Z,74.86
2018-01-01T23:35:27.720Z,74.91
2018-01-01T23:37:55.241Z,74.82
2018-01-01T23:40:22.741Z,74.59
2018-01-01T23:42:50.236Z,74.45
2018-01-01T23:45:17.744Z,74.24
2018-01-01T23:47:45.248Z,74.32
2018-01-01T23:50:12.761Z,73.99
2018-01-01T23:52:40.265Z,73.88
2018-01-01T23:55:07.784Z,73.82
2018-01-01T23:57:35.295Z,73.99
